createdAt,value
2023-02-05T00:01:06.226Z,7.07
2023-02-05T00:03:39.205Z,7.22
2023-02-05T00:06:12.281Z,7.13
2023-02-05T00:08:41.741Z,7.93
2023-02-05T00:11:11.921Z,8.10
2023-02-05T00:13:41.059Z,8.77
2023-02-05T00:16:17.189Z,9.18
2023-02-05T00:18:44.891Z,7.88
2023-02-05T00:21:12.892Z,7.85
2023-02-05T00:23:40.798Z,7.57
2023-02-05T00:26:10.812Z,6.65
2023-02-05T00:28:42.554Z,7.05
2023-02-05T00:31:18.487Z,6.65
2023-02-05T00:37:23.389Z,11.10
2023-02-05T00:42:49.062Z,12.57
2023-02-05T00:45:16.749Z,12.57
2023-02-05T00:47:44.319Z,11.23
2023-02-05T00:50:19.650Z,12.35
2023-02-05T00:53:13.842Z,12.45
2023-02-05T00:55:48.166Z,12.63
2023-02-05T00:58:18.048Z,11.25
2023-02-05T01:00:46.241Z,12.27
2023-02-05T01:06:03.005Z,8.98
2023-02-05T01:08:30.831Z,8.00
2023-02-05T01:10:58.210Z,7.90
2023-02-05T01:13:25.861Z,7.47
2023-02-05T01:15:53.752Z,7.20
2023-02-05T01:18:21.366Z,7.65
2023-02-05T01:20:49.145Z,6.97
2023-02-05T01:23:16.482Z,6.97
2023-02-05T01:25:44.438Z,6.10
2023-02-05T01:28:17.026Z,6.50
2023-02-05T01:31:00.048Z,6.75
2023-02-05T01:33:27.474Z,6.97
2023-02-05T01:35:54.756Z,7.07
2023-02-05T01:38:22.173Z,7.03
2023-02-05T01:40:49.455Z,7.55
2023-02-05T01:43:18.120Z,6.57
2023-02-05T01:46:00.770Z,6.18
2023-02-05T01:48:32.856Z,5.55
2023-02-05T01:51:07.084Z,6.75
2023-02-05T01:53:35.848Z,7.03
2023-02-05T01:56:10.499Z,10.05
2023-02-05T01:58:41.886Z,9.88
2023-02-05T02:01:09.161Z,10.95
2023-02-05T02:03:36.876Z,11.35
2023-02-05T02:09:25.036Z,11.38
2023-02-05T02:11:52.584Z,12.35
2023-02-05T02:14:19.890Z,12.23
2023-02-05T02:16:47.908Z,12.82
2023-02-05T02:20:00.359Z,11.38
2023-02-05T02:22:58.564Z,10.60
2023-02-05T02:26:03.738Z,11.40
2023-02-05T02:28:32.349Z,11.00
2023-02-05T02:31:15.092Z,10.82
2023-02-05T02:34:03.219Z,10.90
2023-02-05T02:36:55.524Z,10.53
2023-02-05T02:39:26.872Z,10.05
2023-02-05T02:42:10.294Z,9.70
2023-02-05T02:44:47.462Z,9.70
2023-02-05T02:47:20.881Z,11.77
2023-02-05T02:49:56.489Z,9.15
2023-02-05T02:55:20.754Z,6.43
2023-02-05T02:57:49.355Z,6.40
2023-02-05T03:00:20.410Z,5.53
2023-02-05T03:02:49.341Z,5.78
2023-02-05T03:11:18.531Z,5.00
2023-02-05T03:13:46.187Z,5.53
2023-02-05T03:16:15.696Z,6.43
2023-02-05T03:18:49.368Z,7.72
2023-02-05T03:21:51.603Z,6.57
2023-02-05T03:24:19.460Z,7.50
2023-02-05T03:26:46.824Z,8.07
2023-02-05T03:29:16.334Z,7.20
2023-02-05T03:32:01.772Z,7.97
2023-02-05T03:34:59.124Z,8.23
2023-02-05T03:37:48.673Z,8.80
2023-02-05T03:40:38.501Z,9.60
2023-02-05T03:43:31.654Z,8.73
2023-02-05T03:46:35.736Z,8.95
2023-02-05T03:49:35.660Z,9.68
2023-02-05T03:52:21.303Z,8.48
2023-02-05T03:55:06.570Z,8.70
2023-02-05T03:57:59.275Z,8.25
2023-02-05T04:00:27.064Z,7.82
2023-02-05T04:02:54.371Z,8.55
2023-02-05T04:05:23.229Z,10.27
2023-02-05T04:07:51.971Z,10.40
2023-02-05T04:10:21.913Z,13.90
2023-02-05T04:12:49.120Z,19.00
2023-02-05T04:15:16.472Z,18.63
2023-02-05T04:17:43.948Z,15.70
2023-02-05T04:20:11.873Z,14.45
2023-02-05T04:22:39.121Z,11.63
2023-02-05T04:25:33.890Z,11.23
2023-02-05T04:28:01.502Z,10.05
2023-02-05T04:30:29.147Z,9.45
2023-02-05T04:32:56.416Z,9.57
2023-02-05T04:35:23.903Z,7.78
2023-02-05T04:37:51.487Z,7.80
2023-02-05T04:40:19.276Z,7.45
2023-02-05T04:42:46.510Z,6.65
2023-02-05T04:45:14.046Z,6.78
2023-02-05T04:47:41.298Z,6.47
2023-02-05T04:50:09.769Z,7.78
2023-02-05T04:55:31.124Z,6.90
2023-02-05T04:57:58.993Z,8.13
2023-02-05T05:00:26.833Z,8.25
2023-02-05T05:02:54.487Z,9.02
2023-02-05T05:05:21.801Z,8.00
2023-02-05T05:07:49.215Z,7.88
2023-02-05T05:10:16.863Z,8.25
2023-02-05T05:12:46.029Z,6.93
2023-02-05T05:15:19.049Z,6.70
2023-02-05T05:17:46.300Z,6.45
2023-02-05T05:20:16.036Z,5.75
2023-02-05T05:29:27.402Z,5.85
2023-02-05T05:31:54.917Z,5.33
2023-02-05T05:34:30.615Z,5.60
2023-02-05T05:36:57.982Z,5.55
2023-02-05T05:39:43.789Z,5.00
2023-02-05T05:42:31.500Z,5.45
2023-02-05T05:44:58.920Z,6.45
2023-02-05T05:47:34.691Z,5.75
2023-02-05T05:50:02.232Z,6.38
2023-02-05T05:52:32.268Z,6.68
2023-02-05T05:54:59.743Z,6.90
2023-02-05T05:57:27.100Z,6.88
2023-02-05T05:59:55.982Z,7.55
2023-02-05T06:02:23.786Z,8.23
2023-02-05T06:04:51.016Z,8.95
2023-02-05T06:07:18.387Z,8.27
2023-02-05T06:09:45.595Z,6.68
2023-02-05T06:12:12.897Z,6.63
2023-02-05T06:14:40.928Z,6.57
2023-02-05T06:17:08.537Z,7.18
2023-02-05T06:19:36.461Z,7.00
2023-02-05T06:22:08.903Z,5.93
2023-02-05T06:24:38.719Z,5.95
2023-02-05T06:27:06.810Z,5.38
2023-02-05T06:29:36.580Z,5.45
2023-02-05T06:32:03.980Z,5.38
2023-02-05T06:34:31.698Z,5.30
2023-02-05T06:37:01.530Z,5.70
2023-02-05T06:39:51.206Z,4.88
2023-02-05T06:42:18.496Z,5.43
2023-02-05T06:44:45.952Z,5.88
2023-02-05T06:47:14.402Z,5.75
2023-02-05T06:49:41.608Z,4.53
2023-02-05T06:52:08.832Z,5.40
2023-02-05T06:54:40.168Z,5.55
2023-02-05T06:57:15.932Z,5.53
2023-02-05T06:59:43.180Z,4.85
2023-02-05T07:02:14.490Z,5.97
2023-02-05T07:04:41.918Z,5.70
2023-02-05T07:13:49.327Z,5.90
2023-02-05T07:19:42.170Z,5.30
2023-02-05T07:25:11.322Z,6.75
2023-02-05T07:28:08.793Z,6.43
2023-02-05T07:30:37.417Z,5.63
2023-02-05T07:33:15.279Z,4.80
2023-02-05T07:36:01.925Z,5.38
2023-02-05T07:38:29.524Z,5.97
2023-02-05T07:40:57.070Z,5.93
2023-02-05T07:43:25.467Z,6.13
2023-02-05T07:46:02.199Z,6.63
2023-02-05T07:53:52.625Z,5.40
2023-02-05T07:56:22.335Z,6.07
2023-02-05T07:58:49.722Z,5.38
2023-02-05T08:01:17.567Z,4.93
2023-02-05T08:04:42.484Z,4.90
2023-02-05T08:07:11.999Z,4.25
2023-02-05T08:09:42.675Z,4.53
2023-02-05T08:15:49.161Z,4.32
2023-02-05T08:21:09.180Z,4.30
2023-02-05T08:23:38.178Z,4.28
2023-02-05T08:26:06.255Z,4.85
2023-02-05T08:28:33.674Z,4.00
2023-02-05T08:31:01.183Z,4.65
2023-02-05T08:33:28.827Z,4.97
2023-02-05T08:35:59.403Z,4.55
2023-02-05T08:38:26.624Z,4.10
2023-02-05T08:40:54.084Z,5.07
2023-02-05T08:43:23.875Z,5.00
2023-02-05T08:45:51.644Z,4.55
2023-02-05T08:48:20.221Z,3.92
2023-02-05T08:50:47.865Z,4.65
2023-02-05T08:53:16.405Z,4.45
2023-02-05T08:55:46.301Z,4.70
2023-02-05T08:58:13.759Z,5.00
2023-02-05T09:00:41.466Z,5.45
2023-02-05T09:03:09.811Z,4.22
2023-02-05T09:05:44.494Z,4.07
2023-02-05T09:08:12.439Z,3.47
2023-02-05T09:10:40.173Z,3.33
2023-02-05T09:13:07.602Z,3.65
2023-02-05T09:15:35.323Z,3.72
2023-02-05T09:18:17.662Z,4.53
2023-02-05T09:20:47.354Z,4.20
2023-02-05T09:23:16.166Z,4.45
2023-02-05T09:25:43.511Z,4.28
2023-02-05T09:28:13.498Z,4.03
2023-02-05T09:30:43.623Z,4.15
2023-02-05T09:33:11.601Z,4.70
2023-02-05T09:36:04.562Z,5.13
2023-02-05T09:38:32.805Z,4.32
2023-02-05T09:41:12.995Z,5.13
2023-02-05T09:44:04.632Z,5.10
2023-02-05T09:46:55.769Z,4.57
2023-02-05T09:49:43.593Z,4.15
2023-02-05T09:52:55.342Z,4.53
2023-02-05T09:55:29.684Z,4.47
2023-02-05T09:58:28.270Z,4.00
2023-02-05T10:01:04.332Z,4.22
2023-02-05T10:03:44.857Z,3.42
2023-02-05T10:06:37.837Z,3.40
2023-02-05T10:09:24.754Z,3.65
2023-02-05T10:15:27.482Z,3.90
2023-02-05T10:18:13.576Z,3.70
2023-02-05T10:21:10.108Z,3.55
2023-02-05T10:24:18.149Z,3.40
2023-02-05T10:26:50.629Z,3.13
2023-02-05T10:29:27.518Z,3.20
2023-02-05T10:32:24.955Z,3.17
2023-02-05T10:35:05.727Z,2.85
2023-02-05T10:37:43.485Z,3.08
2023-02-05T10:40:33.280Z,2.80
2023-02-05T10:44:03.899Z,2.90
2023-02-05T10:46:34.589Z,3.00
2023-02-05T10:49:26.869Z,3.03
2023-02-05T10:52:06.935Z,2.85
2023-02-05T10:54:35.434Z,3.22
2023-02-05T10:57:02.845Z,3.87
2023-02-05T10:59:32.241Z,3.67
2023-02-05T11:04:49.434Z,3.65
2023-02-05T11:07:33.650Z,3.10
2023-02-05T11:10:21.380Z,3.20
2023-02-05T11:12:51.541Z,3.28
2023-02-05T11:15:24.517Z,3.20
2023-02-05T11:17:54.988Z,3.38
2023-02-05T11:20:35.158Z,2.70
2023-02-05T11:23:21.559Z,3.30
2023-02-05T11:26:01.446Z,2.90
2023-02-05T11:28:38.078Z,2.72
2023-02-05T11:31:27.922Z,2.92
2023-02-05T11:34:39.690Z,2.88
2023-02-05T11:37:10.634Z,2.80
2023-02-05T11:39:39.647Z,3.08
2023-02-05T11:42:20.380Z,2.40
2023-02-05T11:44:50.595Z,2.58
2023-02-05T11:47:40.658Z,2.40
2023-02-05T11:50:24.104Z,2.33
2023-02-05T11:52:54.034Z,2.50
2023-02-05T11:55:32.226Z,2.92
2023-02-05T11:58:03.411Z,2.47
2023-02-05T12:00:38.502Z,2.20
2023-02-05T12:03:17.470Z,2.35
2023-02-05T12:06:04.577Z,2.10
2023-02-05T12:08:43.212Z,2.50
2023-02-05T12:11:22.839Z,2.05
2023-02-05T12:14:02.538Z,2.25
2023-02-05T12:16:48.577Z,2.03
2023-02-05T12:19:50.796Z,2.10
2023-02-05T12:22:44.766Z,2.30
2023-02-05T12:25:24.991Z,2.20
2023-02-05T12:28:03.688Z,2.22
2023-02-05T12:30:43.365Z,1.95
2023-02-05T12:33:29.373Z,2.22
2023-02-05T12:36:23.154Z,2.45
2023-02-05T12:39:24.182Z,2.40
2023-02-05T12:42:12.556Z,2.13
2023-02-05T12:44:55.601Z,2.37
2023-02-05T12:47:37.353Z,2.97
2023-02-05T12:50:32.455Z,2.90
2023-02-05T12:53:39.128Z,2.33
2023-02-05T12:56:35.132Z,1.98
2023-02-05T12:59:29.265Z,2.60
2023-02-05T13:02:01.536Z,2.70
2023-02-05T13:04:41.563Z,2.50
2023-02-05T13:13:46.736Z,2.38
2023-02-05T13:16:18.273Z,2.20
2023-02-05T13:19:02.258Z,2.65
2023-02-05T13:21:50.729Z,2.20
2023-02-05T13:24:52.764Z,2.43
2023-02-05T13:27:46.322Z,2.60
2023-02-05T13:30:21.330Z,2.83
2023-02-05T13:32:51.655Z,2.47
2023-02-05T13:35:20.314Z,2.72
2023-02-05T13:38:15.190Z,2.47
2023-02-05T13:41:20.065Z,2.80
2023-02-05T13:44:12.062Z,2.55
2023-02-05T13:47:20.217Z,2.95
2023-02-05T13:50:15.386Z,3.08
2023-02-05T13:53:01.897Z,2.65
2023-02-05T13:56:16.249Z,3.00
2023-02-05T13:58:53.602Z,2.97
2023-02-05T14:01:23.575Z,2.47
2023-02-05T14:03:57.362Z,2.60
2023-02-05T14:06:35.991Z,2.67
2023-02-05T14:09:19.732Z,2.20
2023-02-05T14:11:58.816Z,3.30
2023-02-05T14:14:41.035Z,2.40
2023-02-05T14:17:37.145Z,3.83
2023-02-05T14:20:06.601Z,3.15
2023-02-05T14:22:42.952Z,3.25
2023-02-05T14:25:36.923Z,2.60
2023-02-05T14:28:30.769Z,2.10
2023-02-05T14:31:03.635Z,2.58
2023-02-05T14:33:36.688Z,2.63
2023-02-05T14:36:22.704Z,2.60
2023-02-05T14:39:03.197Z,3.05
2023-02-05T14:41:44.211Z,2.67
2023-02-05T14:44:17.437Z,2.88
2023-02-05T14:46:59.981Z,3.08
2023-02-05T14:49:33.391Z,2.80
2023-02-05T14:52:07.949Z,2.10
2023-02-05T14:54:59.689Z,1.98
2023-02-05T14:57:48.589Z,1.83
2023-02-05T15:00:32.023Z,1.80
2023-02-05T15:03:02.236Z,1.77
2023-02-05T15:05:44.564Z,1.98
2023-02-05T15:08:16.316Z,2.00
2023-02-05T15:10:55.247Z,2.20
2023-02-05T15:13:24.557Z,2.20
2023-02-05T15:18:50.446Z,2.45
2023-02-05T15:21:17.627Z,2.25
2023-02-05T15:23:47.434Z,2.42
2023-02-05T15:26:38.577Z,2.13
2023-02-05T15:29:28.937Z,2.35
2023-02-05T15:32:08.320Z,3.97
2023-02-05T15:34:47.011Z,3.47
2023-02-05T15:37:24.335Z,2.63
2023-02-05T15:40:25.330Z,2.40
2023-02-05T15:43:20.275Z,2.60
2023-02-05T15:46:23.091Z,3.17
2023-02-05T15:48:50.536Z,3.33
2023-02-05T15:51:27.645Z,3.30
2023-02-05T15:53:57.190Z,3.40
2023-02-05T15:56:26.925Z,4.35
2023-02-05T15:59:11.828Z,4.93
2023-02-05T16:01:46.602Z,4.40
2023-02-05T16:04:28.279Z,4.90
2023-02-05T16:06:55.832Z,4.97
2023-02-05T16:09:26.064Z,8.18
2023-02-05T16:11:54.104Z,5.13
2023-02-05T16:14:34.366Z,4.68
2023-02-05T16:20:33.929Z,3.47
2023-02-05T16:23:08.232Z,2.72
2023-02-05T16:26:03.807Z,3.25
2023-02-05T16:28:38.182Z,9.60
2023-02-05T16:31:06.945Z,6.75
2023-02-05T16:33:38.617Z,7.80
2023-02-05T16:36:07.988Z,7.30
2023-02-05T16:55:17.052Z,6.28
2023-02-05T16:57:47.692Z,5.82
2023-02-05T17:00:19.507Z,5.57
2023-02-05T17:02:47.229Z,4.72
2023-02-05T17:05:26.843Z,5.80
2023-02-05T17:08:05.161Z,5.15
2023-02-05T17:10:48.165Z,4.30
2023-02-05T17:13:39.016Z,3.92
2023-02-05T17:16:36.464Z,3.65
2023-02-05T17:19:25.220Z,4.05
2023-02-05T17:22:15.817Z,3.65
2023-02-05T17:24:48.924Z,3.30
2023-02-05T17:31:35.098Z,4.70
2023-02-05T17:34:18.655Z,4.57
2023-02-05T17:36:47.083Z,4.93
2023-02-05T17:39:14.716Z,4.37
2023-02-05T17:42:00.829Z,4.55
2023-02-05T17:44:34.393Z,4.03
2023-02-05T17:47:02.838Z,4.30
2023-02-05T17:49:30.993Z,4.77
2023-02-05T17:51:58.398Z,4.93
2023-02-05T17:57:23.391Z,5.28
2023-02-05T18:00:01.496Z,5.13
2023-02-05T18:02:50.842Z,5.13
2023-02-05T18:05:19.141Z,4.75
2023-02-05T18:07:55.727Z,5.28
2023-02-05T18:10:28.116Z,5.15
2023-02-05T18:12:56.450Z,5.50
2023-02-05T18:15:24.998Z,6.35
2023-02-05T18:18:04.712Z,6.55
2023-02-05T18:26:12.864Z,10.10
2023-02-05T18:28:40.077Z,9.40
2023-02-05T18:31:08.904Z,13.93
2023-02-05T18:33:37.543Z,11.52
2023-02-05T18:36:17.518Z,11.18
2023-02-05T18:42:26.953Z,12.13
2023-02-05T18:48:39.347Z,11.95
2023-02-05T18:51:25.023Z,12.57
2023-02-05T18:53:53.582Z,11.90
2023-02-05T18:56:26.177Z,23.60
2023-02-05T18:59:04.914Z,20.90
2023-02-05T19:01:57.287Z,14.00
2023-02-05T19:04:33.167Z,14.55
2023-02-05T19:07:00.591Z,15.38
2023-02-05T19:09:28.741Z,15.02
2023-02-05T19:11:56.477Z,14.25
2023-02-05T19:14:24.714Z,15.10
2023-02-05T19:16:52.656Z,15.68
2023-02-05T19:19:23.922Z,14.10
2023-02-05T19:22:00.061Z,16.52
2023-02-05T19:24:27.954Z,24.40
2023-02-05T19:26:57.833Z,15.57
2023-02-05T19:29:30.590Z,18.15
2023-02-05T19:31:58.734Z,23.45
2023-02-05T19:34:28.030Z,20.20
2023-02-05T19:39:22.799Z,25.60
2023-02-05T19:41:52.294Z,25.20
2023-02-05T19:44:19.898Z,25.20
2023-02-05T19:46:48.860Z,24.25
2023-02-05T19:49:20.760Z,24.67
2023-02-05T19:51:49.990Z,22.00
2023-02-05T19:56:46.862Z,22.40
2023-02-05T19:59:16.889Z,22.20
2023-02-05T20:01:44.871Z,20.27
2023-02-05T20:04:17.242Z,21.80
2023-02-05T20:06:46.284Z,28.27
2023-02-05T20:09:14.706Z,30.15
2023-02-05T20:11:44.173Z,32.57
2023-02-05T20:14:12.363Z,31.88
2023-02-05T20:16:40.685Z,32.90
2023-02-05T20:19:10.145Z,32.73
2023-02-05T20:21:42.158Z,25.30
2023-02-05T20:24:12.096Z,22.85
2023-02-05T20:26:40.884Z,21.40
2023-02-05T20:29:27.154Z,23.63
2023-02-05T20:31:58.485Z,23.45
2023-02-05T20:34:31.203Z,21.58
2023-02-05T20:37:02.533Z,24.02
2023-02-05T20:39:30.512Z,24.58
2023-02-05T20:42:12.280Z,25.70
2023-02-05T20:44:43.593Z,25.95
2023-02-05T20:47:13.811Z,25.77
2023-02-05T20:49:42.483Z,30.58
2023-02-05T20:52:13.838Z,27.73
2023-02-05T20:54:43.290Z,26.42
2023-02-05T20:57:11.508Z,25.90
2023-02-05T20:59:38.855Z,23.88
2023-02-05T21:02:06.676Z,24.55
2023-02-05T21:04:34.056Z,23.08
2023-02-05T21:07:05.444Z,23.77
2023-02-05T21:09:32.996Z,22.73
2023-02-05T21:12:00.429Z,23.55
2023-02-05T21:14:28.748Z,25.80
2023-02-05T21:16:56.153Z,25.93
2023-02-05T21:19:25.939Z,22.65
2023-02-05T21:22:02.968Z,27.30
2023-02-05T21:24:30.232Z,25.73
2023-02-05T21:27:01.111Z,23.63
2023-02-05T21:29:28.414Z,23.52
2023-02-05T21:31:57.776Z,26.80
2023-02-05T21:34:27.318Z,25.05
2023-02-05T21:36:55.864Z,26.35
2023-02-05T21:39:26.390Z,25.38
2023-02-05T21:41:54.233Z,24.08
2023-02-05T21:44:22.119Z,24.67
2023-02-05T21:46:49.770Z,25.95
2023-02-05T21:49:17.172Z,25.65
2023-02-05T21:51:53.567Z,27.67
2023-02-05T21:54:26.176Z,26.27
2023-02-05T21:56:53.547Z,24.58
2023-02-05T21:59:20.840Z,23.17
2023-02-05T22:01:48.265Z,25.50
2023-02-05T22:04:16.661Z,24.58
2023-02-05T22:06:44.389Z,24.90
2023-02-05T22:09:14.502Z,24.27
2023-02-05T22:11:42.403Z,25.50
2023-02-05T22:14:10.778Z,27.38
2023-02-05T22:16:39.051Z,27.33
2023-02-05T22:19:07.037Z,25.77
2023-02-05T22:21:41.250Z,25.25
2023-02-05T22:24:11.014Z,22.88
2023-02-05T22:26:40.138Z,23.40
2023-02-05T22:29:10.593Z,22.95
2023-02-05T22:31:37.912Z,23.35
2023-02-05T22:34:05.468Z,23.00
2023-02-05T22:36:34.528Z,23.85
2023-02-05T22:39:03.076Z,19.55
2023-02-05T22:41:32.892Z,19.70
2023-02-05T22:44:01.411Z,22.10
2023-02-05T22:46:30.975Z,23.10
2023-02-05T22:49:00.834Z,23.15
2023-02-05T22:51:31.577Z,21.63
2023-02-05T22:53:58.949Z,22.35
2023-02-05T22:56:26.289Z,21.75
2023-02-05T22:58:54.071Z,22.13
2023-02-05T23:01:25.230Z,22.00
2023-02-05T23:04:06.502Z,19.45
2023-02-05T23:06:39.888Z,19.15
2023-02-05T23:09:13.581Z,18.20
2023-02-05T23:11:41.068Z,17.70
2023-02-05T23:14:09.057Z,17.52
2023-02-05T23:16:39.083Z,17.90
2023-02-05T23:19:09.311Z,17.63
2023-02-05T23:21:37.804Z,17.15
2023-02-05T23:24:05.331Z,15.55
2023-02-05T23:26:37.113Z,14.13
2023-02-05T23:29:04.671Z,14.30
2023-02-05T23:31:32.096Z,11.98
2023-02-05T23:33:59.484Z,11.13
2023-02-05T23:36:26.694Z,9.70
2023-02-05T23:38:53.947Z,9.77
2023-02-05T23:41:36.657Z,9.60
2023-02-05T23:44:05.556Z,9.60
2023-02-05T23:46:34.648Z,9.57
2023-02-05T23:49:01.899Z,9.02
2023-02-05T23:51:29.192Z,9.20
2023-02-05T23:53:56.534Z,8.90
2023-02-05T23:56:23.972Z,9.23
2023-02-05T23:58:51.211Z,10.30
